<?xml version="1.0" encoding="UTF-8" standalone="no" ?>
<gpx xmlns="http://www.topografix.com/GPX/1/1" xmlns:xsi="http://www.w3.org/2001/XMLSchema-instance" xsi:schemaLocation="http://www.topografix.com/GPX/1/1 http://www.topografix.com/GPX/1/1/gpx.xsd" version="1.1" creator="VisuGPX - https://www.visugpx.com">
  <metadata>
    <name>Signal de Bassia depart col de Beyrède</name>
  </metadata>
  <trk>
    <name><![CDATA[Signal de Bassia depart col de Beyrède]]></name>
    <trkseg>
      <trkpt lat="42.96256" lon="0.30909">
        <ele>1421</ele>
        <time>2021-08-11T07:39:29Z</time>
      </trkpt>
      <trkpt lat="42.96279" lon="0.30904">
        <ele>1423</ele>
        <time>2021-08-11T07:48:25Z</time>
      </trkpt>
      <trkpt lat="42.96301" lon="0.30913">
        <ele>1415</ele>
        <time>2021-08-11T07:49:35Z</time>
      </trkpt>
      <trkpt lat="42.96322" lon="0.30924">
        <ele>1415</ele>
        <time>2021-08-11T07:50:08Z</time>
      </trkpt>
      <trkpt lat="42.96302" lon="0.30947">
        <ele>1420</ele>
        <time>2021-08-11T07:50:28Z</time>
      </trkpt>
      <trkpt lat="42.96281" lon="0.30958">
        <ele>1420</ele>
        <time>2021-08-11T07:50:30Z</time>
      </trkpt>
      <trkpt lat="42.96341" lon="0.30936">
        <ele>1420</ele>
        <time>2021-08-11T07:50:33Z</time>
      </trkpt>
      <trkpt lat="42.96359" lon="0.30961">
        <ele>1423</ele>
        <time>2021-08-11T07:51:03Z</time>
      </trkpt>
      <trkpt lat="42.96378" lon="0.30979">
        <ele>1426</ele>
        <time>2021-08-11T07:51:32Z</time>
      </trkpt>
      <trkpt lat="42.96397" lon="0.30995">
        <ele>1430</ele>
        <time>2021-08-11T07:52:04Z</time>
      </trkpt>
      <trkpt lat="42.96419" lon="0.31011">
        <ele>1441</ele>
        <time>2021-08-11T07:52:35Z</time>
      </trkpt>
      <trkpt lat="42.96441" lon="0.31024">
        <ele>1441</ele>
        <time>2021-08-11T07:53:04Z</time>
      </trkpt>
      <trkpt lat="42.96463" lon="0.31027">
        <ele>1450</ele>
        <time>2021-08-11T07:53:36Z</time>
      </trkpt>
      <trkpt lat="42.96478" lon="0.31003">
        <ele>1450</ele>
        <time>2021-08-11T07:54:14Z</time>
      </trkpt>
      <trkpt lat="42.96488" lon="0.30975">
        <ele>1451</ele>
        <time>2021-08-11T07:54:46Z</time>
      </trkpt>
      <trkpt lat="42.96513" lon="0.3095">
        <ele>1457</ele>
        <time>2021-08-11T07:55:28Z</time>
      </trkpt>
      <trkpt lat="42.96533" lon="0.30936">
        <ele>1464</ele>
        <time>2021-08-11T07:56:02Z</time>
      </trkpt>
      <trkpt lat="42.96554" lon="0.30921">
        <ele>1466</ele>
        <time>2021-08-11T07:56:33Z</time>
      </trkpt>
      <trkpt lat="42.96577" lon="0.30899">
        <ele>1476</ele>
        <time>2021-08-11T07:57:12Z</time>
      </trkpt>
      <trkpt lat="42.96601" lon="0.30895">
        <ele>1466</ele>
        <time>2021-08-11T07:57:32Z</time>
      </trkpt>
      <trkpt lat="42.96626" lon="0.30888">
        <ele>1473</ele>
        <time>2021-08-11T07:58:06Z</time>
      </trkpt>
      <trkpt lat="42.96647" lon="0.30876">
        <ele>1480</ele>
        <time>2021-08-11T07:58:28Z</time>
      </trkpt>
      <trkpt lat="42.96672" lon="0.30852">
        <ele>1486</ele>
        <time>2021-08-11T07:59:13Z</time>
      </trkpt>
      <trkpt lat="42.96692" lon="0.30836">
        <ele>1488</ele>
        <time>2021-08-11T07:59:40Z</time>
      </trkpt>
      <trkpt lat="42.96713" lon="0.30816">
        <ele>1485</ele>
        <time>2021-08-11T08:00:08Z</time>
      </trkpt>
      <trkpt lat="42.96721" lon="0.30787">
        <ele>1488</ele>
        <time>2021-08-11T08:00:58Z</time>
      </trkpt>
      <trkpt lat="42.96745" lon="0.30778">
        <ele>1489</ele>
        <time>2021-08-11T08:03:00Z</time>
      </trkpt>
      <trkpt lat="42.96765" lon="0.30759">
        <ele>1496</ele>
        <time>2021-08-11T08:03:29Z</time>
      </trkpt>
      <trkpt lat="42.96789" lon="0.30758">
        <ele>1494</ele>
        <time>2021-08-11T08:03:51Z</time>
      </trkpt>
      <trkpt lat="42.96813" lon="0.30749">
        <ele>1489</ele>
        <time>2021-08-11T08:04:13Z</time>
      </trkpt>
      <trkpt lat="42.96834" lon="0.30736">
        <ele>1494</ele>
        <time>2021-08-11T08:04:36Z</time>
      </trkpt>
      <trkpt lat="42.96855" lon="0.30727">
        <ele>1497</ele>
        <time>2021-08-11T08:04:58Z</time>
      </trkpt>
      <trkpt lat="42.96876" lon="0.30713">
        <ele>1505</ele>
        <time>2021-08-11T08:05:24Z</time>
      </trkpt>
      <trkpt lat="42.96898" lon="0.30695">
        <ele>1508</ele>
        <time>2021-08-11T08:05:55Z</time>
      </trkpt>
      <trkpt lat="42.9692" lon="0.30684">
        <ele>1512</ele>
        <time>2021-08-11T08:06:30Z</time>
      </trkpt>
      <trkpt lat="42.96948" lon="0.30686">
        <ele>1515</ele>
        <time>2021-08-11T08:07:24Z</time>
      </trkpt>
      <trkpt lat="42.9697" lon="0.30679">
        <ele>1514</ele>
        <time>2021-08-11T08:08:09Z</time>
      </trkpt>
      <trkpt lat="42.96991" lon="0.30691">
        <ele>1522</ele>
        <time>2021-08-11T08:08:47Z</time>
      </trkpt>
      <trkpt lat="42.97013" lon="0.30678">
        <ele>1539</ele>
        <time>2021-08-11T08:09:59Z</time>
      </trkpt>
      <trkpt lat="42.9704" lon="0.30678">
        <ele>1545</ele>
        <time>2021-08-11T08:10:54Z</time>
      </trkpt>
      <trkpt lat="42.9707" lon="0.30681">
        <ele>1557</ele>
        <time>2021-08-11T08:13:15Z</time>
      </trkpt>
      <trkpt lat="42.97093" lon="0.30686">
        <ele>1563</ele>
        <time>2021-08-11T08:15:47Z</time>
      </trkpt>
      <trkpt lat="42.97104" lon="0.30737">
        <ele>1567</ele>
        <time>2021-08-11T08:18:19Z</time>
      </trkpt>
      <trkpt lat="42.97086" lon="0.30765">
        <ele>1567</ele>
        <time>2021-08-11T08:18:21Z</time>
      </trkpt>
      <trkpt lat="42.971" lon="0.30694">
        <ele>1567</ele>
        <time>2021-08-11T08:18:23Z</time>
      </trkpt>
      <trkpt lat="42.97129" lon="0.30676">
        <ele>1571</ele>
        <time>2021-08-11T08:21:46Z</time>
      </trkpt>
      <trkpt lat="42.97151" lon="0.30678">
        <ele>1568</ele>
        <time>2021-08-11T08:22:07Z</time>
      </trkpt>
      <trkpt lat="42.97176" lon="0.30667">
        <ele>1571</ele>
        <time>2021-08-11T08:22:43Z</time>
      </trkpt>
      <trkpt lat="42.972" lon="0.3066">
        <ele>1581</ele>
        <time>2021-08-11T08:23:12Z</time>
      </trkpt>
      <trkpt lat="42.97224" lon="0.30658">
        <ele>1592</ele>
        <time>2021-08-11T08:24:21Z</time>
      </trkpt>
      <trkpt lat="42.97255" lon="0.30656">
        <ele>1597</ele>
        <time>2021-08-11T08:25:19Z</time>
      </trkpt>
      <trkpt lat="42.97281" lon="0.30654">
        <ele>1612</ele>
        <time>2021-08-11T08:26:29Z</time>
      </trkpt>
      <trkpt lat="42.97299" lon="0.30635">
        <ele>1617</ele>
        <time>2021-08-11T08:27:14Z</time>
      </trkpt>
      <trkpt lat="42.97328" lon="0.30627">
        <ele>1617</ele>
        <time>2021-08-11T08:28:26Z</time>
      </trkpt>
      <trkpt lat="42.97355" lon="0.30604">
        <ele>1625</ele>
        <time>2021-08-11T08:30:58Z</time>
      </trkpt>
      <trkpt lat="42.97365" lon="0.30575">
        <ele>1629</ele>
        <time>2021-08-11T08:33:49Z</time>
      </trkpt>
      <trkpt lat="42.9737" lon="0.30545">
        <ele>1635</ele>
        <time>2021-08-11T08:34:32Z</time>
      </trkpt>
      <trkpt lat="42.97356" lon="0.3052">
        <ele>1654</ele>
        <time>2021-08-11T08:35:31Z</time>
      </trkpt>
      <trkpt lat="42.97361" lon="0.30489">
        <ele>1655</ele>
        <time>2021-08-11T08:38:13Z</time>
      </trkpt>
      <trkpt lat="42.9736" lon="0.30449">
        <ele>1677</ele>
        <time>2021-08-11T08:38:56Z</time>
      </trkpt>
      <trkpt lat="42.97347" lon="0.30414">
        <ele>1683</ele>
        <time>2021-08-11T08:40:11Z</time>
      </trkpt>
      <trkpt lat="42.97334" lon="0.30387">
        <ele>1682</ele>
        <time>2021-08-11T08:40:57Z</time>
      </trkpt>
      <trkpt lat="42.97337" lon="0.30347">
        <ele>1685</ele>
        <time>2021-08-11T08:42:11Z</time>
      </trkpt>
      <trkpt lat="42.97363" lon="0.30341">
        <ele>1712</ele>
        <time>2021-08-11T08:44:21Z</time>
      </trkpt>
      <trkpt lat="42.97387" lon="0.30339">
        <ele>1724</ele>
        <time>2021-08-11T08:45:12Z</time>
      </trkpt>
      <trkpt lat="42.97407" lon="0.30322">
        <ele>1724</ele>
        <time>2021-08-11T08:45:16Z</time>
      </trkpt>
      <trkpt lat="42.9737" lon="0.30315">
        <ele>1724</ele>
        <time>2021-08-11T08:45:19Z</time>
      </trkpt>
      <trkpt lat="42.9737" lon="0.30284">
        <ele>1735</ele>
        <time>2021-08-11T08:46:27Z</time>
      </trkpt>
      <trkpt lat="42.97371" lon="0.30251">
        <ele>1738</ele>
        <time>2021-08-11T08:47:35Z</time>
      </trkpt>
      <trkpt lat="42.97382" lon="0.30223">
        <ele>1745</ele>
        <time>2021-08-11T08:48:20Z</time>
      </trkpt>
      <trkpt lat="42.97402" lon="0.30204">
        <ele>1750</ele>
        <time>2021-08-11T08:49:11Z</time>
      </trkpt>
      <trkpt lat="42.97417" lon="0.3018">
        <ele>1754</ele>
        <time>2021-08-11T09:00:12Z</time>
      </trkpt>
      <trkpt lat="42.9744" lon="0.3018">
        <ele>1760</ele>
        <time>2021-08-11T09:01:30Z</time>
      </trkpt>
      <trkpt lat="42.97443" lon="0.30147">
        <ele>1765</ele>
        <time>2021-08-11T09:02:11Z</time>
      </trkpt>
      <trkpt lat="42.97474" lon="0.30147">
        <ele>1769</ele>
        <time>2021-08-11T09:03:36Z</time>
      </trkpt>
      <trkpt lat="42.97491" lon="0.30117">
        <ele>1783</ele>
        <time>2021-08-11T09:05:17Z</time>
      </trkpt>
      <trkpt lat="42.97503" lon="0.30083">
        <ele>1795</ele>
        <time>2021-08-11T09:06:41Z</time>
      </trkpt>
      <trkpt lat="42.97516" lon="0.30057">
        <ele>1800</ele>
        <time>2021-08-11T09:08:10Z</time>
      </trkpt>
      <trkpt lat="42.9752" lon="0.30027">
        <ele>1802</ele>
        <time>2021-08-11T09:09:11Z</time>
      </trkpt>
      <trkpt lat="42.97547" lon="0.30012">
        <ele>1822</ele>
        <time>2021-08-11T09:10:16Z</time>
      </trkpt>
      <trkpt lat="42.9756" lon="0.30038">
        <ele>1823</ele>
        <time>2021-08-11T09:19:54Z</time>
      </trkpt>
      <trkpt lat="42.97572" lon="0.30072">
        <ele>1833</ele>
        <time>2021-08-11T09:21:47Z</time>
      </trkpt>
      <trkpt lat="42.97586" lon="0.3011">
        <ele>1838</ele>
        <time>2021-08-11T09:23:33Z</time>
      </trkpt>
      <trkpt lat="42.976" lon="0.30134">
        <ele>1842</ele>
        <time>2021-08-11T09:24:45Z</time>
      </trkpt>
      <trkpt lat="42.97615" lon="0.30158">
        <ele>1846</ele>
        <time>2021-08-11T09:25:58Z</time>
      </trkpt>
      <trkpt lat="42.97633" lon="0.30186">
        <ele>1852</ele>
        <time>2021-08-11T09:26:51Z</time>
      </trkpt>
      <trkpt lat="42.9765" lon="0.30213">
        <ele>1862</ele>
        <time>2021-08-11T09:28:32Z</time>
      </trkpt>
      <trkpt lat="42.9767" lon="0.3024">
        <ele>1866</ele>
        <time>2021-08-11T09:30:29Z</time>
      </trkpt>
      <trkpt lat="42.97674" lon="0.30281">
        <ele>1880</ele>
        <time>2021-08-11T09:32:24Z</time>
      </trkpt>
      <trkpt lat="42.97691" lon="0.3031">
        <ele>1896</ele>
        <time>2021-08-11T09:33:52Z</time>
      </trkpt>
      <trkpt lat="42.97705" lon="0.30344">
        <ele>1904</ele>
        <time>2021-08-11T09:35:19Z</time>
      </trkpt>
      <trkpt lat="42.97713" lon="0.30374">
        <ele>1907</ele>
        <time>2021-08-11T09:36:20Z</time>
      </trkpt>
      <trkpt lat="42.9772" lon="0.30405">
        <ele>1915</ele>
        <time>2021-08-11T09:37:16Z</time>
      </trkpt>
      <trkpt lat="42.97728" lon="0.30435">
        <ele>1919</ele>
        <time>2021-08-11T09:40:11Z</time>
      </trkpt>
      <trkpt lat="42.97717" lon="0.30462">
        <ele>1920</ele>
        <time>2021-08-11T09:43:19Z</time>
      </trkpt>
      <trkpt lat="42.97712" lon="0.305">
        <ele>1921</ele>
        <time>2021-08-11T09:44:00Z</time>
      </trkpt>
      <trkpt lat="42.97712" lon="0.30531">
        <ele>1920</ele>
        <time>2021-08-11T09:44:29Z</time>
      </trkpt>
      <trkpt lat="42.97712" lon="0.30572">
        <ele>1922</ele>
        <time>2021-08-11T09:45:06Z</time>
      </trkpt>
      <trkpt lat="42.97706" lon="0.30611">
        <ele>1920</ele>
        <time>2021-08-11T09:45:56Z</time>
      </trkpt>
      <trkpt lat="42.9769" lon="0.3064">
        <ele>1915</ele>
        <time>2021-08-11T09:46:46Z</time>
      </trkpt>
      <trkpt lat="42.97675" lon="0.30672">
        <ele>1906</ele>
        <time>2021-08-11T09:47:48Z</time>
      </trkpt>
      <trkpt lat="42.97662" lon="0.30708">
        <ele>1896</ele>
        <time>2021-08-11T09:49:03Z</time>
      </trkpt>
      <trkpt lat="42.9765" lon="0.30734">
        <ele>1891</ele>
        <time>2021-08-11T09:50:00Z</time>
      </trkpt>
      <trkpt lat="42.97628" lon="0.30761">
        <ele>1885</ele>
        <time>2021-08-11T09:51:56Z</time>
      </trkpt>
      <trkpt lat="42.97608" lon="0.30792">
        <ele>1878</ele>
        <time>2021-08-11T09:53:39Z</time>
      </trkpt>
      <trkpt lat="42.9759" lon="0.30825">
        <ele>1871</ele>
        <time>2021-08-11T09:55:31Z</time>
      </trkpt>
      <trkpt lat="42.9758" lon="0.30852">
        <ele>1864</ele>
        <time>2021-08-11T09:56:39Z</time>
      </trkpt>
      <trkpt lat="42.97567" lon="0.30878">
        <ele>1864</ele>
        <time>2021-08-11T09:57:41Z</time>
      </trkpt>
      <trkpt lat="42.97554" lon="0.30915">
        <ele>1866</ele>
        <time>2021-08-11T09:58:46Z</time>
      </trkpt>
      <trkpt lat="42.97545" lon="0.30944">
        <ele>1870</ele>
        <time>2021-08-11T09:59:39Z</time>
      </trkpt>
      <trkpt lat="42.97528" lon="0.30965">
        <ele>1870</ele>
        <time>2021-08-11T10:00:14Z</time>
      </trkpt>
      <trkpt lat="42.97515" lon="0.30992">
        <ele>1870</ele>
        <time>2021-08-11T10:00:47Z</time>
      </trkpt>
      <trkpt lat="42.97506" lon="0.3102">
        <ele>1870</ele>
        <time>2021-08-11T10:01:35Z</time>
      </trkpt>
      <trkpt lat="42.97501" lon="0.31051">
        <ele>1870</ele>
        <time>2021-08-11T10:02:51Z</time>
      </trkpt>
      <trkpt lat="42.97485" lon="0.31076">
        <ele>1882</ele>
        <time>2021-08-11T10:07:14Z</time>
      </trkpt>
      <trkpt lat="42.97471" lon="0.31102">
        <ele>1891</ele>
        <time>2021-08-11T10:08:28Z</time>
      </trkpt>
      <trkpt lat="42.97464" lon="0.31132">
        <ele>1893</ele>
        <time>2021-08-11T10:10:11Z</time>
      </trkpt>
      <trkpt lat="42.97442" lon="0.31158">
        <ele>1899</ele>
        <time>2021-08-11T10:12:59Z</time>
      </trkpt>
      <trkpt lat="42.97416" lon="0.31182">
        <ele>1902</ele>
        <time>2021-08-11T10:14:54Z</time>
      </trkpt>
      <trkpt lat="42.97394" lon="0.31202">
        <ele>1900</ele>
        <time>2021-08-11T10:15:26Z</time>
      </trkpt>
      <trkpt lat="42.97379" lon="0.31228">
        <ele>1896</ele>
        <time>2021-08-11T10:15:55Z</time>
      </trkpt>
      <trkpt lat="42.97359" lon="0.31241">
        <ele>1897</ele>
        <time>2021-08-11T10:16:21Z</time>
      </trkpt>
      <trkpt lat="42.97343" lon="0.31263">
        <ele>1896</ele>
        <time>2021-08-11T10:16:44Z</time>
      </trkpt>
      <trkpt lat="42.97328" lon="0.31287">
        <ele>1892</ele>
        <time>2021-08-11T10:17:09Z</time>
      </trkpt>
      <trkpt lat="42.97306" lon="0.31313">
        <ele>1894</ele>
        <time>2021-08-11T10:17:49Z</time>
      </trkpt>
      <trkpt lat="42.97286" lon="0.31343">
        <ele>1887</ele>
        <time>2021-08-11T10:21:15Z</time>
      </trkpt>
      <trkpt lat="42.97273" lon="0.31368">
        <ele>1881</ele>
        <time>2021-08-11T10:24:37Z</time>
      </trkpt>
      <trkpt lat="42.97262" lon="0.31405">
        <ele>1876</ele>
        <time>2021-08-11T10:27:05Z</time>
      </trkpt>
      <trkpt lat="42.9725" lon="0.3144">
        <ele>1871</ele>
        <time>2021-08-11T10:28:00Z</time>
      </trkpt>
      <trkpt lat="42.97243" lon="0.31481">
        <ele>1864</ele>
        <time>2021-08-11T10:29:23Z</time>
      </trkpt>
      <trkpt lat="42.97241" lon="0.31513">
        <ele>1858</ele>
        <time>2021-08-11T10:30:01Z</time>
      </trkpt>
      <trkpt lat="42.97226" lon="0.31548">
        <ele>1851</ele>
        <time>2021-08-11T10:31:29Z</time>
      </trkpt>
      <trkpt lat="42.97209" lon="0.31579">
        <ele>1850</ele>
        <time>2021-08-11T10:33:04Z</time>
      </trkpt>
      <trkpt lat="42.97192" lon="0.31614">
        <ele>1844</ele>
        <time>2021-08-11T10:33:52Z</time>
      </trkpt>
      <trkpt lat="42.9717" lon="0.31643">
        <ele>1837</ele>
        <time>2021-08-11T10:36:03Z</time>
      </trkpt>
      <trkpt lat="42.97143" lon="0.31664">
        <ele>1826</ele>
        <time>2021-08-11T10:37:52Z</time>
      </trkpt>
      <trkpt lat="42.97123" lon="0.31691">
        <ele>1819</ele>
        <time>2021-08-11T10:39:13Z</time>
      </trkpt>
      <trkpt lat="42.97114" lon="0.31727">
        <ele>1801</ele>
        <time>2021-08-11T10:41:40Z</time>
      </trkpt>
      <trkpt lat="42.97101" lon="0.31765">
        <ele>1781</ele>
        <time>2021-08-11T10:49:51Z</time>
      </trkpt>
      <trkpt lat="42.97084" lon="0.31799">
        <ele>1772</ele>
        <time>2021-08-11T10:51:04Z</time>
      </trkpt>
      <trkpt lat="42.97066" lon="0.31834">
        <ele>1759</ele>
        <time>2021-08-11T10:52:11Z</time>
      </trkpt>
      <trkpt lat="42.97049" lon="0.31862">
        <ele>1751</ele>
        <time>2021-08-11T10:52:50Z</time>
      </trkpt>
      <trkpt lat="42.97035" lon="0.31888">
        <ele>1748</ele>
        <time>2021-08-11T10:53:14Z</time>
      </trkpt>
      <trkpt lat="42.97023" lon="0.31914">
        <ele>1743</ele>
        <time>2021-08-11T10:53:41Z</time>
      </trkpt>
      <trkpt lat="42.97008" lon="0.31939">
        <ele>1747</ele>
        <time>2021-08-11T10:54:12Z</time>
      </trkpt>
      <trkpt lat="42.96993" lon="0.31975">
        <ele>1744</ele>
        <time>2021-08-11T10:54:54Z</time>
      </trkpt>
      <trkpt lat="42.9698" lon="0.32013">
        <ele>1742</ele>
        <time>2021-08-11T10:57:03Z</time>
      </trkpt>
      <trkpt lat="42.96976" lon="0.32043">
        <ele>1738</ele>
        <time>2021-08-11T10:57:46Z</time>
      </trkpt>
      <trkpt lat="42.96971" lon="0.32075">
        <ele>1730</ele>
        <time>2021-08-11T10:58:40Z</time>
      </trkpt>
      <trkpt lat="42.96976" lon="0.32108">
        <ele>1725</ele>
        <time>2021-08-11T10:59:40Z</time>
      </trkpt>
      <trkpt lat="42.96971" lon="0.32143">
        <ele>1720</ele>
        <time>2021-08-11T11:00:24Z</time>
      </trkpt>
      <trkpt lat="42.96988" lon="0.32176">
        <ele>1709</ele>
        <time>2021-08-11T11:01:40Z</time>
      </trkpt>
      <trkpt lat="42.96993" lon="0.32206">
        <ele>1698</ele>
        <time>2021-08-11T11:03:45Z</time>
      </trkpt>
      <trkpt lat="42.97002" lon="0.32235">
        <ele>1696</ele>
        <time>2021-08-11T11:04:35Z</time>
      </trkpt>
      <trkpt lat="42.97012" lon="0.32264">
        <ele>1689</ele>
        <time>2021-08-11T11:05:41Z</time>
      </trkpt>
      <trkpt lat="42.97022" lon="0.32301">
        <ele>1678</ele>
        <time>2021-08-11T11:06:42Z</time>
      </trkpt>
      <trkpt lat="42.97022" lon="0.32332">
        <ele>1675</ele>
        <time>2021-08-11T11:07:50Z</time>
      </trkpt>
      <trkpt lat="42.97028" lon="0.32363">
        <ele>1672</ele>
        <time>2021-08-11T11:08:55Z</time>
      </trkpt>
      <trkpt lat="42.97044" lon="0.32387">
        <ele>1662</ele>
        <time>2021-08-11T11:11:29Z</time>
      </trkpt>
      <trkpt lat="42.97046" lon="0.32444">
        <ele>1669</ele>
        <time>2021-08-11T12:55:18Z</time>
      </trkpt>
      <trkpt lat="42.97041" lon="0.32408">
        <ele>1670</ele>
        <time>2021-08-11T13:01:16Z</time>
      </trkpt>
      <trkpt lat="42.9703" lon="0.3238">
        <ele>1669</ele>
        <time>2021-08-11T13:01:46Z</time>
      </trkpt>
      <trkpt lat="42.97024" lon="0.3235">
        <ele>1669</ele>
        <time>2021-08-11T13:02:19Z</time>
      </trkpt>
      <trkpt lat="42.97026" lon="0.32319">
        <ele>1671</ele>
        <time>2021-08-11T13:03:00Z</time>
      </trkpt>
      <trkpt lat="42.97004" lon="0.32312">
        <ele>1668</ele>
        <time>2021-08-11T13:05:16Z</time>
      </trkpt>
      <trkpt lat="42.96978" lon="0.32293">
        <ele>1666</ele>
        <time>2021-08-11T13:06:32Z</time>
      </trkpt>
      <trkpt lat="42.96956" lon="0.32284">
        <ele>1663</ele>
        <time>2021-08-11T13:07:10Z</time>
      </trkpt>
      <trkpt lat="42.96934" lon="0.32274">
        <ele>1659</ele>
        <time>2021-08-11T13:07:49Z</time>
      </trkpt>
      <trkpt lat="42.96912" lon="0.32262">
        <ele>1654</ele>
        <time>2021-08-11T13:08:27Z</time>
      </trkpt>
      <trkpt lat="42.96889" lon="0.32256">
        <ele>1650</ele>
        <time>2021-08-11T13:09:29Z</time>
      </trkpt>
      <trkpt lat="42.96862" lon="0.32234">
        <ele>1642</ele>
        <time>2021-08-11T13:10:58Z</time>
      </trkpt>
      <trkpt lat="42.96837" lon="0.32211">
        <ele>1629</ele>
        <time>2021-08-11T13:12:14Z</time>
      </trkpt>
      <trkpt lat="42.96833" lon="0.32179">
        <ele>1609</ele>
        <time>2021-08-11T13:12:45Z</time>
      </trkpt>
      <trkpt lat="42.96817" lon="0.32155">
        <ele>1602</ele>
        <time>2021-08-11T13:14:51Z</time>
      </trkpt>
      <trkpt lat="42.96817" lon="0.32124">
        <ele>1603</ele>
        <time>2021-08-11T13:15:15Z</time>
      </trkpt>
      <trkpt lat="42.96809" lon="0.32096">
        <ele>1600</ele>
        <time>2021-08-11T13:15:39Z</time>
      </trkpt>
      <trkpt lat="42.96803" lon="0.32064">
        <ele>1601</ele>
        <time>2021-08-11T13:16:06Z</time>
      </trkpt>
      <trkpt lat="42.96797" lon="0.32034">
        <ele>1597</ele>
        <time>2021-08-11T13:16:38Z</time>
      </trkpt>
      <trkpt lat="42.968" lon="0.32004">
        <ele>1590</ele>
        <time>2021-08-11T13:16:54Z</time>
      </trkpt>
      <trkpt lat="42.96793" lon="0.31974">
        <ele>1590</ele>
        <time>2021-08-11T13:17:15Z</time>
      </trkpt>
      <trkpt lat="42.96799" lon="0.31937">
        <ele>1583</ele>
        <time>2021-08-11T13:17:59Z</time>
      </trkpt>
      <trkpt lat="42.96795" lon="0.31905">
        <ele>1586</ele>
        <time>2021-08-11T13:18:20Z</time>
      </trkpt>
      <trkpt lat="42.96799" lon="0.31872">
        <ele>1585</ele>
        <time>2021-08-11T13:18:41Z</time>
      </trkpt>
      <trkpt lat="42.96809" lon="0.31841">
        <ele>1575</ele>
        <time>2021-08-11T13:19:11Z</time>
      </trkpt>
      <trkpt lat="42.96814" lon="0.3181">
        <ele>1571</ele>
        <time>2021-08-11T13:19:41Z</time>
      </trkpt>
      <trkpt lat="42.96818" lon="0.3178">
        <ele>1573</ele>
        <time>2021-08-11T13:20:18Z</time>
      </trkpt>
      <trkpt lat="42.96819" lon="0.31749">
        <ele>1565</ele>
        <time>2021-08-11T13:21:01Z</time>
      </trkpt>
      <trkpt lat="42.96826" lon="0.31717">
        <ele>1563</ele>
        <time>2021-08-11T13:21:45Z</time>
      </trkpt>
      <trkpt lat="42.96833" lon="0.31677">
        <ele>1561</ele>
        <time>2021-08-11T13:22:17Z</time>
      </trkpt>
      <trkpt lat="42.96836" lon="0.31636">
        <ele>1557</ele>
        <time>2021-08-11T13:22:57Z</time>
      </trkpt>
      <trkpt lat="42.96838" lon="0.31601">
        <ele>1559</ele>
        <time>2021-08-11T13:23:19Z</time>
      </trkpt>
      <trkpt lat="42.96836" lon="0.31569">
        <ele>1552</ele>
        <time>2021-08-11T13:23:41Z</time>
      </trkpt>
      <trkpt lat="42.96836" lon="0.31537">
        <ele>1547</ele>
        <time>2021-08-11T13:24:01Z</time>
      </trkpt>
      <trkpt lat="42.96825" lon="0.31509">
        <ele>1543</ele>
        <time>2021-08-11T13:24:24Z</time>
      </trkpt>
      <trkpt lat="42.96812" lon="0.31483">
        <ele>1538</ele>
        <time>2021-08-11T13:24:53Z</time>
      </trkpt>
      <trkpt lat="42.96797" lon="0.31451">
        <ele>1538</ele>
        <time>2021-08-11T13:25:17Z</time>
      </trkpt>
      <trkpt lat="42.96775" lon="0.31427">
        <ele>1537</ele>
        <time>2021-08-11T13:26:38Z</time>
      </trkpt>
      <trkpt lat="42.96758" lon="0.31404">
        <ele>1540</ele>
        <time>2021-08-11T13:27:59Z</time>
      </trkpt>
      <trkpt lat="42.9674" lon="0.31381">
        <ele>1540</ele>
        <time>2021-08-11T13:28:33Z</time>
      </trkpt>
      <trkpt lat="42.9672" lon="0.31367">
        <ele>1538</ele>
        <time>2021-08-11T13:29:11Z</time>
      </trkpt>
      <trkpt lat="42.96699" lon="0.31355">
        <ele>1531</ele>
        <time>2021-08-11T13:29:27Z</time>
      </trkpt>
      <trkpt lat="42.96678" lon="0.31341">
        <ele>1519</ele>
        <time>2021-08-11T13:34:12Z</time>
      </trkpt>
      <trkpt lat="42.96655" lon="0.31331">
        <ele>1517</ele>
        <time>2021-08-11T13:34:33Z</time>
      </trkpt>
      <trkpt lat="42.96639" lon="0.31309">
        <ele>1515</ele>
        <time>2021-08-11T13:34:54Z</time>
      </trkpt>
      <trkpt lat="42.96623" lon="0.31284">
        <ele>1509</ele>
        <time>2021-08-11T13:35:22Z</time>
      </trkpt>
      <trkpt lat="42.966" lon="0.31258">
        <ele>1504</ele>
        <time>2021-08-11T13:35:50Z</time>
      </trkpt>
      <trkpt lat="42.96581" lon="0.31241">
        <ele>1502</ele>
        <time>2021-08-11T13:36:15Z</time>
      </trkpt>
      <trkpt lat="42.96565" lon="0.3122">
        <ele>1498</ele>
        <time>2021-08-11T13:36:37Z</time>
      </trkpt>
      <trkpt lat="42.96547" lon="0.312">
        <ele>1490</ele>
        <time>2021-08-11T13:37:02Z</time>
      </trkpt>
      <trkpt lat="42.9653" lon="0.31175">
        <ele>1486</ele>
        <time>2021-08-11T13:37:32Z</time>
      </trkpt>
      <trkpt lat="42.96511" lon="0.31156">
        <ele>1479</ele>
        <time>2021-08-11T13:38:00Z</time>
      </trkpt>
      <trkpt lat="42.96493" lon="0.31138">
        <ele>1473</ele>
        <time>2021-08-11T13:38:24Z</time>
      </trkpt>
      <trkpt lat="42.96474" lon="0.31113">
        <ele>1466</ele>
        <time>2021-08-11T13:38:55Z</time>
      </trkpt>
      <trkpt lat="42.96454" lon="0.31098">
        <ele>1459</ele>
        <time>2021-08-11T13:39:12Z</time>
      </trkpt>
      <trkpt lat="42.96438" lon="0.31075">
        <ele>1453</ele>
        <time>2021-08-11T13:39:35Z</time>
      </trkpt>
      <trkpt lat="42.96422" lon="0.31053">
        <ele>1448</ele>
        <time>2021-08-11T13:39:52Z</time>
      </trkpt>
      <trkpt lat="42.96405" lon="0.3103">
        <ele>1442</ele>
        <time>2021-08-11T13:40:09Z</time>
      </trkpt>
      <trkpt lat="42.96396" lon="0.31001">
        <ele>1437</ele>
        <time>2021-08-11T13:40:26Z</time>
      </trkpt>
      <trkpt lat="42.96378" lon="0.30981">
        <ele>1434</ele>
        <time>2021-08-11T13:40:44Z</time>
      </trkpt>
      <trkpt lat="42.96358" lon="0.30963">
        <ele>1432</ele>
        <time>2021-08-11T13:40:58Z</time>
      </trkpt>
      <trkpt lat="42.9634" lon="0.30944">
        <ele>1430</ele>
        <time>2021-08-11T13:41:11Z</time>
      </trkpt>
      <trkpt lat="42.96323" lon="0.30924">
        <ele>1428</ele>
        <time>2021-08-11T13:41:27Z</time>
      </trkpt>
      <trkpt lat="42.96301" lon="0.30909">
        <ele>1427</ele>
        <time>2021-08-11T13:41:41Z</time>
      </trkpt>
      <trkpt lat="42.96281" lon="0.30894">
        <ele>1428</ele>
        <time>2021-08-11T13:42:04Z</time>
      </trkpt>
    </trkseg>
  </trk>
</gpx>